sensor_id;sensor_type;location;lat;lon;timestamp;pressure;altitude;pressure_sealevel;temperature;humidity
21706;BME280;11014;53.076;18.208;2023-02-03T00:02:12;101883.22;;;2.02;67.93
21706;BME280;11014;53.076;18.208;2023-02-03T00:04:41;101878.34;;;1.97;67.93
21706;BME280;11014;53.076;18.208;2023-02-03T00:07:11;101886.44;;;1.96;67.57
21706;BME280;11014;53.076;18.208;2023-02-03T00:09:40;101888.25;;;1.95;68.22
21706;BME280;11014;53.076;18.208;2023-02-03T00:12:10;101882.94;;;1.95;68.54
21706;BME280;11014;53.076;18.208;2023-02-03T00:14:39;101876.28;;;1.91;68.46
21706;BME280;11014;53.076;18.208;2023-02-03T00:17:08;101873.31;;;1.94;68.74
21706;BME280;11014;53.076;18.208;2023-02-03T00:19:36;101876.69;;;1.96;68.23
21706;BME280;11014;53.076;18.208;2023-02-03T00:22:05;101868.03;;;1.94;68.53
21706;BME280;11014;53.076;18.208;2023-02-03T00:24:36;101872.34;;;1.95;68.67
21706;BME280;11014;53.076;18.208;2023-02-03T00:27:05;101863.44;;;1.96;68.40
21706;BME280;11014;53.076;18.208;2023-02-03T00:29:33;101858.41;;;1.93;68.43
21706;BME280;11014;53.076;18.208;2023-02-03T00:32:04;101856.59;;;1.94;68.30
21706;BME280;11014;53.076;18.208;2023-02-03T00:34:33;101849.47;;;1.94;68.50
21706;BME280;11014;53.076;18.208;2023-02-03T00:37:02;101853.81;;;1.95;67.99
21706;BME280;11014;53.076;18.208;2023-02-03T00:39:38;101848.50;;;1.95;67.97
21706;BME280;11014;53.076;18.208;2023-02-03T00:42:17;101852.44;;;1.91;68.08
21706;BME280;11014;53.076;18.208;2023-02-03T00:44:48;101838.19;;;1.92;67.71
21706;BME280;11014;53.076;18.208;2023-02-03T00:47:25;101840.16;;;1.90;67.83
21706;BME280;11014;53.076;18.208;2023-02-03T00:49:54;101830.69;;;1.88;67.74
21706;BME280;11014;53.076;18.208;2023-02-03T00:52:23;101833.47;;;1.86;67.68
21706;BME280;11014;53.076;18.208;2023-02-03T00:54:59;101826.50;;;1.85;67.91
21706;BME280;11014;53.076;18.208;2023-02-03T00:57:30;101828.47;;;1.83;67.89
21706;BME280;11014;53.076;18.208;2023-02-03T00:59:58;101825.13;;;1.81;67.90
21706;BME280;11014;53.076;18.208;2023-02-03T01:02:29;101828.75;;;1.80;67.63
21706;BME280;11014;53.076;18.208;2023-02-03T01:04:59;101830.41;;;1.81;67.70
21706;BME280;11014;53.076;18.208;2023-02-03T01:07:30;101825.13;;;1.81;67.92
21706;BME280;11014;53.076;18.208;2023-02-03T01:10:00;101826.63;;;1.84;67.85
21706;BME280;11014;53.076;18.208;2023-02-03T01:12:29;101824.44;;;1.79;68.42
21706;BME280;11014;53.076;18.208;2023-02-03T01:14:59;101835.72;;;1.81;68.88
21706;BME280;11014;53.076;18.208;2023-02-03T01:17:28;101829.44;;;1.82;69.09
21706;BME280;11014;53.076;18.208;2023-02-03T01:19:57;101822.56;;;1.89;68.81
21706;BME280;11014;53.076;18.208;2023-02-03T01:22:29;101824.25;;;1.90;68.26
21706;BME280;11014;53.076;18.208;2023-02-03T01:24:57;101823.28;;;1.91;68.20
21706;BME280;11014;53.076;18.208;2023-02-03T01:27:26;101815.03;;;1.94;68.16
21706;BME280;11014;53.076;18.208;2023-02-03T01:29:56;101797.19;;;1.96;68.01
21706;BME280;11014;53.076;18.208;2023-02-03T01:32:26;101789.91;;;1.98;67.97
21706;BME280;11014;53.076;18.208;2023-02-03T01:34:56;101781.69;;;2.01;67.82
21706;BME280;11014;53.076;18.208;2023-02-03T01:37:25;101764.94;;;2.01;67.69
21706;BME280;11014;53.076;18.208;2023-02-03T01:39:54;101761.16;;;2.03;67.82
21706;BME280;11014;53.076;18.208;2023-02-03T01:42:23;101758.91;;;2.08;67.77
21706;BME280;11014;53.076;18.208;2023-02-03T01:44:52;101753.59;;;2.08;67.59
21706;BME280;11014;53.076;18.208;2023-02-03T01:47:30;101748.00;;;2.11;67.42
21706;BME280;11014;53.076;18.208;2023-02-03T01:50:26;101750.22;;;2.16;67.56
21706;BME280;11014;53.076;18.208;2023-02-03T01:53:09;101746.75;;;2.15;67.38
21706;BME280;11014;53.076;18.208;2023-02-03T01:55:46;101753.00;;;2.14;67.01
21706;BME280;11014;53.076;18.208;2023-02-03T01:58:28;101764.44;;;2.15;67.15
21706;BME280;11014;53.076;18.208;2023-02-03T02:00:58;101763.59;;;2.14;67.12
21706;BME280;11014;53.076;18.208;2023-02-03T02:03:35;101759.69;;;2.18;67.23
21706;BME280;11014;53.076;18.208;2023-02-03T02:06:11;101761.06;;;2.22;67.52
21706;BME280;11014;53.076;18.208;2023-02-03T02:08:49;101746.81;;;2.23;67.37
21706;BME280;11014;53.076;18.208;2023-02-03T02:11:20;101755.47;;;2.25;67.13
21706;BME280;11014;53.076;18.208;2023-02-03T02:13:50;101738.72;;;2.25;67.23
21706;BME280;11014;53.076;18.208;2023-02-03T02:16:52;101727.50;;;2.31;67.38
21706;BME280;11014;53.076;18.208;2023-02-03T02:22:21;101709.50;;;2.34;67.28
21706;BME280;11014;53.076;18.208;2023-02-03T02:36:28;101679.69;;;2.40;66.86
21706;BME280;11014;53.076;18.208;2023-02-03T02:39:04;101675.69;;;2.36;66.89
21706;BME280;11014;53.076;18.208;2023-02-03T02:44:18;101664.44;;;2.34;67.59
21706;BME280;11014;53.076;18.208;2023-02-03T02:46:53;101659.13;;;2.34;67.84
21706;BME280;11014;53.076;18.208;2023-02-03T02:49:43;101652.75;;;2.27;68.14
21706;BME280;11014;53.076;18.208;2023-02-03T02:52:15;101645.50;;;2.29;68.49
21706;BME280;11014;53.076;18.208;2023-02-03T02:54:50;101642.84;;;2.29;68.62
21706;BME280;11014;53.076;18.208;2023-02-03T02:57:21;101642.75;;;2.39;68.39
21706;BME280;11014;53.076;18.208;2023-02-03T02:59:55;101652.38;;;2.40;68.43
21706;BME280;11014;53.076;18.208;2023-02-03T03:02:34;101647.59;;;2.44;68.51
21706;BME280;11014;53.076;18.208;2023-02-03T03:05:04;101647.28;;;2.47;68.39
21706;BME280;11014;53.076;18.208;2023-02-03T03:07:47;101644.19;;;2.51;68.22
21706;BME280;11014;53.076;18.208;2023-02-03T03:10:21;101648.34;;;2.54;68.10
21706;BME280;11014;53.076;18.208;2023-02-03T03:12:55;101650.69;;;2.57;68.29
21706;BME280;11014;53.076;18.208;2023-02-03T03:15:27;101650.53;;;2.58;68.21
21706;BME280;11014;53.076;18.208;2023-02-03T03:18:30;101649.09;;;2.64;68.62
21706;BME280;11014;53.076;18.208;2023-02-03T03:21:02;101643.63;;;2.65;68.36
21706;BME280;11014;53.076;18.208;2023-02-03T03:23:39;101636.19;;;2.69;68.45
21706;BME280;11014;53.076;18.208;2023-02-03T03:26:48;101632.25;;;2.73;68.25
21706;BME280;11014;53.076;18.208;2023-02-03T03:29:23;101623.91;;;2.68;68.54
21706;BME280;11014;53.076;18.208;2023-02-03T03:31:52;101629.06;;;2.69;68.68
21706;BME280;11014;53.076;18.208;2023-02-03T03:34:21;101617.97;;;2.74;68.48
21706;BME280;11014;53.076;18.208;2023-02-03T03:36:58;101614.03;;;2.78;68.55
21706;BME280;11014;53.076;18.208;2023-02-03T03:50:48;101594.50;;;2.87;68.49
21706;BME280;11014;53.076;18.208;2023-02-03T03:53:18;101591.53;;;2.90;68.39
21706;BME280;11014;53.076;18.208;2023-02-03T03:55:50;101589.59;;;2.92;68.60
21706;BME280;11014;53.076;18.208;2023-02-03T03:58:23;101582.81;;;2.97;68.40
21706;BME280;11014;53.076;18.208;2023-02-03T04:00:57;101580.16;;;2.97;68.30
21706;BME280;11014;53.076;18.208;2023-02-03T04:03:31;101568.41;;;3.00;68.57
21706;BME280;11014;53.076;18.208;2023-02-03T04:06:00;101573.53;;;3.02;68.58
21706;BME280;11014;53.076;18.208;2023-02-03T04:08:29;101569.72;;;3.04;68.18
21706;BME280;11014;53.076;18.208;2023-02-03T04:10:57;101567.09;;;3.04;68.40
21706;BME280;11014;53.076;18.208;2023-02-03T04:13:26;101566.09;;;3.05;68.19
21706;BME280;11014;53.076;18.208;2023-02-03T04:15:54;101560.94;;;3.04;68.59
21706;BME280;11014;53.076;18.208;2023-02-03T04:18:23;101556.47;;;3.04;68.33
21706;BME280;11014;53.076;18.208;2023-02-03T04:20:52;101552.81;;;3.05;68.38
21706;BME280;11014;53.076;18.208;2023-02-03T04:23:20;101545.53;;;3.07;68.29
21706;BME280;11014;53.076;18.208;2023-02-03T04:25:49;101544.56;;;3.08;68.58
21706;BME280;11014;53.076;18.208;2023-02-03T04:28:17;101539.91;;;3.10;68.35
21706;BME280;11014;53.076;18.208;2023-02-03T04:30:46;101530.13;;;3.11;68.22
21706;BME280;11014;53.076;18.208;2023-02-03T04:33:15;101520.34;;;3.11;68.31
21706;BME280;11014;53.076;18.208;2023-02-03T04:35:43;101522.81;;;3.13;68.54
21706;BME280;11014;53.076;18.208;2023-02-03T04:38:12;101514.72;;;3.14;68.45
21706;BME280;11014;53.076;18.208;2023-02-03T04:40:42;101513.72;;;3.15;68.33
21706;BME280;11014;53.076;18.208;2023-02-03T04:43:12;101509.06;;;3.17;68.41
21706;BME280;11014;53.076;18.208;2023-02-03T04:45:43;101507.09;;;3.19;68.39
21706;BME280;11014;53.076;18.208;2023-02-03T04:48:12;101510.41;;;3.21;68.42
21706;BME280;11014;53.076;18.208;2023-02-03T04:50:43;101505.09;;;3.21;68.33
21706;BME280;11014;53.076;18.208;2023-02-03T04:53:12;101499.78;;;3.21;68.49
21706;BME280;11014;53.076;18.208;2023-02-03T04:55:47;101497.81;;;3.23;68.34
21706;BME280;11014;53.076;18.208;2023-02-03T04:58:15;101492.50;;;3.23;68.28
21706;BME280;11014;53.076;18.208;2023-02-03T05:00:44;101492.81;;;3.20;68.60
21706;BME280;11014;53.076;18.208;2023-02-03T05:03:17;101491.16;;;3.19;68.50
21706;BME280;11014;53.076;18.208;2023-02-03T05:05:48;101488.84;;;3.24;68.52
21706;BME280;11014;53.076;18.208;2023-02-03T05:08:16;101484.56;;;3.31;68.52
21706;BME280;11014;53.076;18.208;2023-02-03T05:10:45;101482.56;;;3.33;68.20
21706;BME280;11014;53.076;18.208;2023-02-03T05:13:14;101482.72;;;3.32;68.26
21706;BME280;11014;53.076;18.208;2023-02-03T05:15:43;101467.78;;;3.31;68.53
21706;BME280;11014;53.076;18.208;2023-02-03T05:18:11;101465.97;;;3.31;68.55
21706;BME280;11014;53.076;18.208;2023-02-03T05:20:40;101462.97;;;3.34;68.24
21706;BME280;11014;53.076;18.208;2023-02-03T05:23:08;101440.06;;;3.33;68.37
21706;BME280;11014;53.076;18.208;2023-02-03T05:25:37;101438.09;;;3.35;68.24
21706;BME280;11014;53.076;18.208;2023-02-03T05:28:05;101429.13;;;3.36;68.37
21706;BME280;11014;53.076;18.208;2023-02-03T05:30:34;101422.66;;;3.39;68.38
21706;BME280;11014;53.076;18.208;2023-02-03T05:33:03;101408.38;;;3.40;68.57
21706;BME280;11014;53.076;18.208;2023-02-03T05:35:32;101411.69;;;3.42;68.24
21706;BME280;11014;53.076;18.208;2023-02-03T05:38:01;101407.88;;;3.44;68.58
21706;BME280;11014;53.076;18.208;2023-02-03T05:40:30;101406.06;;;3.45;68.26
21706;BME280;11014;53.076;18.208;2023-02-03T05:43:16;101406.91;;;3.53;68.24
21706;BME280;11014;53.076;18.208;2023-02-03T05:46:10;101396.94;;;3.55;68.20
21706;BME280;11014;53.076;18.208;2023-02-03T05:48:39;101389.66;;;3.57;68.23
21706;BME280;11014;53.076;18.208;2023-02-03T05:51:08;101380.66;;;3.58;67.92
21706;BME280;11014;53.076;18.208;2023-02-03T05:53:36;101379.69;;;3.59;68.20
21706;BME280;11014;53.076;18.208;2023-02-03T05:56:05;101370.72;;;3.61;68.18
21706;BME280;11014;53.076;18.208;2023-02-03T05:58:34;101365.41;;;3.61;67.92
21706;BME280;11014;53.076;18.208;2023-02-03T06:01:02;101355.78;;;3.59;67.87
21706;BME280;11014;53.076;18.208;2023-02-03T06:03:37;101352.59;;;3.64;68.12
21706;BME280;11014;53.076;18.208;2023-02-03T06:06:06;101346.31;;;3.65;67.98
21706;BME280;11014;53.076;18.208;2023-02-03T06:08:35;101333.84;;;3.66;68.05
21706;BME280;11014;53.076;18.208;2023-02-03T06:11:04;101333.53;;;3.69;67.75
21706;BME280;11014;53.076;18.208;2023-02-03T06:13:33;101331.84;;;3.68;67.79
21706;BME280;11014;53.076;18.208;2023-02-03T06:16:02;101329.00;;;3.69;67.75
21706;BME280;11014;53.076;18.208;2023-02-03T06:18:31;101321.72;;;3.71;67.92
21706;BME280;11014;53.076;18.208;2023-02-03T06:21:00;101317.06;;;3.73;67.69
21706;BME280;11014;53.076;18.208;2023-02-03T06:23:28;101310.06;;;3.80;67.83
21706;BME280;11014;53.076;18.208;2023-02-03T06:25:58;101305.25;;;3.84;67.77
21706;BME280;11014;53.076;18.208;2023-02-03T06:28:27;101298.75;;;3.86;67.70
21706;BME280;11014;53.076;18.208;2023-02-03T06:30:56;101300.44;;;3.87;68.01
21706;BME280;11014;53.076;18.208;2023-02-03T06:33:27;101290.75;;;3.94;67.97
21706;BME280;11014;53.076;18.208;2023-02-03T06:35:56;101289.91;;;3.94;67.79
21706;BME280;11014;53.076;18.208;2023-02-03T06:38:25;101278.13;;;3.96;67.77
21706;BME280;11014;53.076;18.208;2023-02-03T06:40:54;101277.78;;;3.99;67.91
21706;BME280;11014;53.076;18.208;2023-02-03T06:43:22;101264.00;;;4.04;67.77
21706;BME280;11014;53.076;18.208;2023-02-03T06:45:51;101256.31;;;4.09;67.79
21706;BME280;11014;53.076;18.208;2023-02-03T06:48:20;101244.31;;;4.13;67.91
21706;BME280;11014;53.076;18.208;2023-02-03T06:50:49;101235.53;;;4.12;67.86
21706;BME280;11014;53.076;18.208;2023-02-03T06:53:20;101229.06;;;4.15;67.55
21706;BME280;11014;53.076;18.208;2023-02-03T06:55:48;101220.06;;;4.16;67.73
21706;BME280;11014;53.076;18.208;2023-02-03T06:58:17;101220.06;;;4.16;67.75
21706;BME280;11014;53.076;18.208;2023-02-03T07:00:45;101219.16;;;4.24;67.89
21706;BME280;11014;53.076;18.208;2023-02-03T07:03:14;101208.88;;;4.29;67.79
21706;BME280;11014;53.076;18.208;2023-02-03T07:05:43;101201.19;;;4.34;67.43
21706;BME280;11014;53.076;18.208;2023-02-03T07:08:11;101195.88;;;4.34;67.66
21706;BME280;11014;53.076;18.208;2023-02-03T07:10:40;101197.97;;;4.38;67.41
21706;BME280;11014;53.076;18.208;2023-02-03T07:13:11;101196.69;;;4.34;67.50
21706;BME280;11014;53.076;18.208;2023-02-03T07:15:40;101191.00;;;4.37;67.61
21706;BME280;11014;53.076;18.208;2023-02-03T07:18:09;101178.38;;;4.39;67.57
21706;BME280;11014;53.076;18.208;2023-02-03T07:20:46;101168.91;;;4.37;67.57
21706;BME280;11014;53.076;18.208;2023-02-03T07:23:15;101154.44;;;4.39;67.41
21706;BME280;11014;53.076;18.208;2023-02-03T07:25:45;101152.72;;;4.46;67.62
21706;BME280;11014;53.076;18.208;2023-02-03T07:28:13;101140.72;;;4.50;67.43
21706;BME280;11014;53.076;18.208;2023-02-03T07:30:42;101139.41;;;4.46;67.27
21706;BME280;11014;53.076;18.208;2023-02-03T07:33:11;101140.44;;;4.45;67.27
21706;BME280;11014;53.076;18.208;2023-02-03T07:35:40;101133.38;;;4.52;67.33
21706;BME280;11014;53.076;18.208;2023-02-03T07:38:08;101132.00;;;4.56;67.43
21706;BME280;11014;53.076;18.208;2023-02-03T07:40:37;101118.34;;;4.59;67.21
21706;BME280;11014;53.076;18.208;2023-02-03T07:43:06;101112.50;;;4.64;67.38
21706;BME280;11014;53.076;18.208;2023-02-03T07:45:35;101116.28;;;4.69;67.32
21706;BME280;11014;53.076;18.208;2023-02-03T07:48:04;101108.59;;;4.74;67.33
21706;BME280;11014;53.076;18.208;2023-02-03T07:50:33;101114.97;;;4.65;67.12
21706;BME280;11014;53.076;18.208;2023-02-03T07:53:02;101099.13;;;4.72;67.03
21706;BME280;11014;53.076;18.208;2023-02-03T07:55:31;101083.31;;;4.70;67.21
21706;BME280;11014;53.076;18.208;2023-02-03T07:57:59;101077.84;;;4.72;67.26
21706;BME280;11014;53.076;18.208;2023-02-03T08:00:30;101078.28;;;4.75;67.34
21706;BME280;11014;53.076;18.208;2023-02-03T08:02:59;101076.00;;;4.72;67.57
21706;BME280;11014;53.076;18.208;2023-02-03T08:05:28;101064.81;;;4.77;67.62
21706;BME280;11014;53.076;18.208;2023-02-03T08:07:57;101058.75;;;4.83;67.73
21706;BME280;11014;53.076;18.208;2023-02-03T08:10:27;101052.13;;;4.79;67.77
21706;BME280;11014;53.076;18.208;2023-02-03T08:12:55;101049.75;;;4.84;68.00
21706;BME280;11014;53.076;18.208;2023-02-03T08:15:25;101036.06;;;4.87;68.08
21706;BME280;11014;53.076;18.208;2023-02-03T08:17:53;101034.53;;;4.93;67.92
21706;BME280;11014;53.076;18.208;2023-02-03T08:20:22;101022.50;;;4.97;67.85
21706;BME280;11014;53.076;18.208;2023-02-03T08:22:51;101022.16;;;5.00;67.95
21706;BME280;11014;53.076;18.208;2023-02-03T08:25:20;101008.63;;;5.01;67.91
21706;BME280;11014;53.076;18.208;2023-02-03T08:27:49;100996.78;;;5.04;68.32
21706;BME280;11014;53.076;18.208;2023-02-03T08:30:18;100995.41;;;5.08;68.24
21706;BME280;11014;53.076;18.208;2023-02-03T08:32:48;100987.88;;;5.11;68.19
21706;BME280;11014;53.076;18.208;2023-02-03T08:35:17;100967.41;;;5.12;68.45
21706;BME280;11014;53.076;18.208;2023-02-03T08:37:46;100960.69;;;5.16;68.55
21706;BME280;11014;53.076;18.208;2023-02-03T08:40:16;100955.00;;;5.19;68.30
21706;BME280;11014;53.076;18.208;2023-02-03T08:42:45;100938.63;;;5.22;68.55
21706;BME280;11014;53.076;18.208;2023-02-03T08:45:16;100947.53;;;5.29;68.50
21706;BME280;11014;53.076;18.208;2023-02-03T08:47:45;100932.19;;;5.31;68.40
21706;BME280;11014;53.076;18.208;2023-02-03T08:50:14;100927.69;;;5.31;68.58
21706;BME280;11014;53.076;18.208;2023-02-03T08:52:43;100916.81;;;5.33;68.62
21706;BME280;11014;53.076;18.208;2023-02-03T08:55:12;100912.16;;;5.35;68.58
21706;BME280;11014;53.076;18.208;2023-02-03T08:57:40;100901.75;;;5.40;68.64
21706;BME280;11014;53.076;18.208;2023-02-03T09:00:10;100896.03;;;5.43;68.60
21706;BME280;11014;53.076;18.208;2023-02-03T09:02:39;100891.97;;;5.47;68.48
21706;BME280;11014;53.076;18.208;2023-02-03T09:05:09;100883.81;;;5.49;68.74
21706;BME280;11014;53.076;18.208;2023-02-03T09:07:37;100869.91;;;5.53;68.65
21706;BME280;11014;53.076;18.208;2023-02-03T09:10:06;100860.53;;;5.57;68.61
21706;BME280;11014;53.076;18.208;2023-02-03T09:12:35;100856.34;;;5.48;68.71
21706;BME280;11014;53.076;18.208;2023-02-03T09:15:04;100847.72;;;5.46;69.12
21706;BME280;11014;53.076;18.208;2023-02-03T09:17:33;100835.25;;;5.53;68.86
21706;BME280;11014;53.076;18.208;2023-02-03T09:20:02;100820.28;;;5.52;68.84
21706;BME280;11014;53.076;18.208;2023-02-03T09:22:31;100812.94;;;5.54;69.10
21706;BME280;11014;53.076;18.208;2023-02-03T09:25:00;100810.53;;;5.59;68.91
21706;BME280;11014;53.076;18.208;2023-02-03T09:27:29;100797.81;;;5.61;69.05
21706;BME280;11014;53.076;18.208;2023-02-03T09:29:58;100788.16;;;5.60;68.95
21706;BME280;11014;53.076;18.208;2023-02-03T09:32:28;100779.75;;;5.57;68.66
21706;BME280;11014;53.076;18.208;2023-02-03T09:34:57;100775.63;;;5.54;69.04
21706;BME280;11014;53.076;18.208;2023-02-03T09:37:28;100757.78;;;5.55;68.90
21706;BME280;11014;53.076;18.208;2023-02-03T09:39:57;100764.19;;;5.60;68.87
21706;BME280;11014;53.076;18.208;2023-02-03T09:45:25;100745.78;;;5.65;68.92
21706;BME280;11014;53.076;18.208;2023-02-03T09:47:59;100732.63;;;5.57;68.90
21706;BME280;11014;53.076;18.208;2023-02-03T09:50:32;100727.69;;;5.54;68.83
21706;BME280;11014;53.076;18.208;2023-02-03T09:53:17;100720.16;;;5.64;68.99
21706;BME280;11014;53.076;18.208;2023-02-03T09:55:49;100712.16;;;5.64;69.18
21706;BME280;11014;53.076;18.208;2023-02-03T09:58:18;100689.19;;;5.63;68.76
21706;BME280;11014;53.076;18.208;2023-02-03T10:01:01;100685.50;;;5.64;68.95
21706;BME280;11014;53.076;18.208;2023-02-03T10:03:53;100678.75;;;5.62;68.94
21706;BME280;11014;53.076;18.208;2023-02-03T10:06:36;100661.91;;;5.61;68.94
21706;BME280;11014;53.076;18.208;2023-02-03T10:12:09;100646.16;;;5.66;69.14
21706;BME280;11014;53.076;18.208;2023-02-03T10:15:05;100633.63;;;5.60;69.01
21706;BME280;11014;53.076;18.208;2023-02-03T10:20:42;100601.00;;;5.52;69.08
21706;BME280;11014;53.076;18.208;2023-02-03T10:23:28;100582.53;;;5.44;69.25
21706;BME280;11014;53.076;18.208;2023-02-03T10:26:04;100575.16;;;5.46;69.53
21706;BME280;11014;53.076;18.208;2023-02-03T10:28:39;100574.91;;;5.34;70.04
21706;BME280;11014;53.076;18.208;2023-02-03T10:31:21;100554.41;;;5.34;70.53
21706;BME280;11014;53.076;18.208;2023-02-03T10:34:15;100552.16;;;5.31;70.74
21706;BME280;11014;53.076;18.208;2023-02-03T10:36:57;100534.91;;;5.27;70.73
21706;BME280;11014;53.076;18.208;2023-02-03T10:39:42;100530.84;;;5.31;70.66
21706;BME280;11014;53.076;18.208;2023-02-03T10:42:12;100515.69;;;5.32;70.57
21706;BME280;11014;53.076;18.208;2023-02-03T10:44:46;100502.59;;;5.37;70.56
21706;BME280;11014;53.076;18.208;2023-02-03T10:47:22;100488.69;;;5.48;70.56
21706;BME280;11014;53.076;18.208;2023-02-03T10:49:54;100485.25;;;5.54;70.40
21706;BME280;11014;53.076;18.208;2023-02-03T10:52:31;100474.78;;;5.59;70.58
21706;BME280;11014;53.076;18.208;2023-02-03T10:55:27;100458.78;;;5.53;70.61
21706;BME280;11014;53.076;18.208;2023-02-03T10:58:05;100458.13;;;5.44;70.75
21706;BME280;11014;53.076;18.208;2023-02-03T11:00:42;100440.94;;;5.47;71.05
21706;BME280;11014;53.076;18.208;2023-02-03T11:06:09;100421.09;;;5.49;70.89
21706;BME280;11014;53.076;18.208;2023-02-03T11:08:43;100403.06;;;5.51;71.07
21706;BME280;11014;53.076;18.208;2023-02-03T11:11:22;100389.13;;;5.49;70.80
21706;BME280;11014;53.076;18.208;2023-02-03T11:16:35;100371.66;;;5.47;71.22
21706;BME280;11014;53.076;18.208;2023-02-03T11:19:17;100362.47;;;5.49;71.43
21706;BME280;11014;53.076;18.208;2023-02-03T11:21:53;100347.94;;;5.52;71.37
21706;BME280;11014;53.076;18.208;2023-02-03T11:24:28;100329.06;;;5.53;71.13
21706;BME280;11014;53.076;18.208;2023-02-03T11:27:02;100319.03;;;5.55;71.09
21706;BME280;11014;53.076;18.208;2023-02-03T11:29:39;100296.06;;;5.61;71.09
21706;BME280;11014;53.076;18.208;2023-02-03T11:32:22;100293.63;;;5.59;70.92
21706;BME280;11014;53.076;18.208;2023-02-03T11:35:03;100276.81;;;5.52;70.89
21706;BME280;11014;53.076;18.208;2023-02-03T11:37:44;100276.00;;;5.45;70.86
21706;BME280;11014;53.076;18.208;2023-02-03T11:43:16;100251.00;;;5.46;71.45
21706;BME280;11014;53.076;18.208;2023-02-03T11:45:50;100241.19;;;5.40;71.53
21706;BME280;11014;53.076;18.208;2023-02-03T11:48:30;100239.13;;;5.42;71.71
21706;BME280;11014;53.076;18.208;2023-02-03T12:09:25;100179.31;;;5.25;72.18
21706;BME280;11014;53.076;18.208;2023-02-03T12:12:05;100177.50;;;5.19;72.52
21706;BME280;11014;53.076;18.208;2023-02-03T12:14:57;100166.22;;;5.23;72.37
21706;BME280;11014;53.076;18.208;2023-02-03T12:20:36;100139.59;;;5.23;72.42
21706;BME280;11014;53.076;18.208;2023-02-03T12:23:35;100130.56;;;5.31;72.26
21706;BME280;11014;53.076;18.208;2023-02-03T12:26:22;100122.78;;;5.29;72.23
21706;BME280;11014;53.076;18.208;2023-02-03T12:29:13;100098.19;;;5.34;72.42
21706;BME280;11014;53.076;18.208;2023-02-03T12:31:59;100110.69;;;5.33;72.42
21706;BME280;11014;53.076;18.208;2023-02-03T12:40:35;100094.69;;;5.40;72.64
21706;BME280;11014;53.076;18.208;2023-02-03T12:43:36;100094.88;;;5.45;72.45
21706;BME280;11014;53.076;18.208;2023-02-03T12:46:49;100088.72;;;5.45;72.25
21706;BME280;11014;53.076;18.208;2023-02-03T12:49:46;100072.09;;;5.56;72.33
21706;BME280;11014;53.076;18.208;2023-02-03T12:52:30;100077.59;;;5.61;72.31
21706;BME280;11014;53.076;18.208;2023-02-03T12:55:33;100067.53;;;5.69;72.06
21706;BME280;11014;53.076;18.208;2023-02-03T12:58:22;100072.28;;;5.61;71.88
21706;BME280;11014;53.076;18.208;2023-02-03T13:03:42;100060.75;;;5.73;71.99
21706;BME280;11014;53.076;18.208;2023-02-03T13:06:57;100066.84;;;5.80;72.10
21706;BME280;11014;53.076;18.208;2023-02-03T13:09:47;100066.03;;;5.86;71.86
21706;BME280;11014;53.076;18.208;2023-02-03T13:12:29;100063.16;;;5.88;71.80
21706;BME280;11014;53.076;18.208;2023-02-03T13:15:44;100060.72;;;5.86;71.71
21706;BME280;11014;53.076;18.208;2023-02-03T13:18:25;100047.97;;;5.88;71.68
21706;BME280;11014;53.076;18.208;2023-02-03T13:21:14;100044.91;;;5.91;71.77
21706;BME280;11014;53.076;18.208;2023-02-03T13:24:08;100049.97;;;6.00;71.56
21706;BME280;11014;53.076;18.208;2023-02-03T13:29:52;100039.19;;;6.19;71.50
21706;BME280;11014;53.076;18.208;2023-02-03T13:35:48;100023.56;;;6.23;71.48
21706;BME280;11014;53.076;18.208;2023-02-03T13:38:38;100019.81;;;6.30;71.44
21706;BME280;11014;53.076;18.208;2023-02-03T13:43:47;100013.66;;;6.30;70.90
21706;BME280;11014;53.076;18.208;2023-02-03T13:46:26;100003.47;;;6.20;71.16
21706;BME280;11014;53.076;18.208;2023-02-03T13:48:59;100001.47;;;6.16;71.32
21706;BME280;11014;53.076;18.208;2023-02-03T13:51:37;100005.19;;;6.15;71.38
21706;BME280;11014;53.076;18.208;2023-02-03T13:57:31;99998.91;;;6.27;71.09
21706;BME280;11014;53.076;18.208;2023-02-03T14:03:14;99997.09;;;6.21;71.25
21706;BME280;11014;53.076;18.208;2023-02-03T14:05:48;100001.03;;;6.19;71.19
21706;BME280;11014;53.076;18.208;2023-02-03T14:16:40;99995.03;;;6.48;70.86
21706;BME280;11014;53.076;18.208;2023-02-03T14:19:11;99990.59;;;6.42;70.85
21706;BME280;11014;53.076;18.208;2023-02-03T14:21:58;99997.09;;;6.46;70.86
21706;BME280;11014;53.076;18.208;2023-02-03T14:24:36;99997.69;;;6.48;70.84
21706;BME280;11014;53.076;18.208;2023-02-03T14:27:28;100008.09;;;6.56;70.98
21706;BME280;11014;53.076;18.208;2023-02-03T14:30:09;100002.31;;;6.59;70.63
21706;BME280;11014;53.076;18.208;2023-02-03T14:32:51;99997.81;;;6.60;70.79
21706;BME280;11014;53.076;18.208;2023-02-03T14:35:36;100010.47;;;6.64;70.79
21706;BME280;11014;53.076;18.208;2023-02-03T14:38:10;100006.34;;;6.68;70.69
21706;BME280;11014;53.076;18.208;2023-02-03T14:41:01;100014.06;;;6.76;70.32
21706;BME280;11014;53.076;18.208;2023-02-03T14:43:48;100009.72;;;6.82;70.21
21706;BME280;11014;53.076;18.208;2023-02-03T14:49:51;100017.75;;;6.75;69.95
21706;BME280;11014;53.076;18.208;2023-02-03T14:52:47;100021.50;;;6.74;70.14
21706;BME280;11014;53.076;18.208;2023-02-03T14:58:29;100027.13;;;6.84;70.06
21706;BME280;11014;53.076;18.208;2023-02-03T15:01:04;100018.16;;;6.79;69.79
21706;BME280;11014;53.076;18.208;2023-02-03T15:03:35;100023.09;;;6.75;69.70
21706;BME280;11014;53.076;18.208;2023-02-03T15:07:02;100023.28;;;6.80;70.14
21706;BME280;11014;53.076;18.208;2023-02-03T15:09:33;100032.03;;;6.87;69.61
21706;BME280;11014;53.076;18.208;2023-02-03T15:12:24;100031.38;;;6.92;69.54
21706;BME280;11014;53.076;18.208;2023-02-03T15:14:53;100029.94;;;6.89;69.44